sensor_id;sensor_type;location;lat;lon;timestamp;temperature;humidity
5150;DHT22;2593;52.466;13.436;2023-12-20T00:01:40;6.90;99.90
5150;DHT22;2593;52.466;13.436;2023-12-20T00:04:05;6.90;99.90
5150;DHT22;2593;52.466;13.436;2023-12-20T00:06:31;6.90;99.90
5150;DHT22;2593;52.466;13.436;2023-12-20T00:08:56;6.90;99.90
5150;DHT22;2593;52.466;13.436;2023-12-20T00:11:23;6.90;99.90
5150;DHT22;2593;52.466;13.436;2023-12-20T00:13:48;6.80;99.90
5150;DHT22;2593;52.466;13.436;2023-12-20T00:16:14;6.90;99.90
5150;DHT22;2593;52.466;13.436;2023-12-20T00:18:39;6.90;99.90
5150;DHT22;2593;52.466;13.436;2023-12-20T00:21:05;6.90;99.90
5150;DHT22;2593;52.466;13.436;2023-12-20T00:23:30;7.00;99.90
5150;DHT22;2593;52.466;13.436;2023-12-20T00:25:56;7.00;99.90
5150;DHT22;2593;52.466;13.436;2023-12-20T00:28:21;7.00;99.90
5150;DHT22;2593;52.466;13.436;2023-12-20T00:30:47;6.90;99.90
5150;DHT22;2593;52.466;13.436;2023-12-20T00:33:13;6.80;99.90
5150;DHT22;2593;52.466;13.436;2023-12-20T00:35:38;6.90;99.90
5150;DHT22;2593;52.466;13.436;2023-12-20T00:38:03;6.80;99.90
5150;DHT22;2593;52.466;13.436;2023-12-20T00:40:30;6.90;99.90
5150;DHT22;2593;52.466;13.436;2023-12-20T00:42:56;6.80;99.90
5150;DHT22;2593;52.466;13.436;2023-12-20T00:45:21;6.90;99.90
5150;DHT22;2593;52.466;13.436;2023-12-20T00:47:47;6.80;99.90
5150;DHT22;2593;52.466;13.436;2023-12-20T00:50:12;6.80;99.90
5150;DHT22;2593;52.466;13.436;2023-12-20T00:52:37;6.90;99.90
5150;DHT22;2593;52.466;13.436;2023-12-20T00:55:03;6.80;99.90
5150;DHT22;2593;52.466;13.436;2023-12-20T00:57:29;6.80;99.90
5150;DHT22;2593;52.466;13.436;2023-12-20T00:59:55;6.90;99.90
5150;DHT22;2593;52.466;13.436;2023-12-20T01:02:20;6.80;99.90
5150;DHT22;2593;52.466;13.436;2023-12-20T01:04:46;6.80;99.90
5150;DHT22;2593;52.466;13.436;2023-12-20T01:07:11;6.90;99.90
5150;DHT22;2593;52.466;13.436;2023-12-20T01:09:37;6.80;99.90
5150;DHT22;2593;52.466;13.436;2023-12-20T01:12:03;6.80;99.90
5150;DHT22;2593;52.466;13.436;2023-12-20T01:14:28;6.90;99.90
5150;DHT22;2593;52.466;13.436;2023-12-20T01:16:54;6.80;99.90
5150;DHT22;2593;52.466;13.436;2023-12-20T01:19:19;6.80;99.90
5150;DHT22;2593;52.466;13.436;2023-12-20T01:21:45;6.90;99.90
5150;DHT22;2593;52.466;13.436;2023-12-20T01:24:10;7.00;99.90
5150;DHT22;2593;52.466;13.436;2023-12-20T01:26:36;7.00;99.90
5150;DHT22;2593;52.466;13.436;2023-12-20T01:29:01;7.00;99.90
5150;DHT22;2593;52.466;13.436;2023-12-20T01:31:27;7.00;99.90
5150;DHT22;2593;52.466;13.436;2023-12-20T01:33:53;7.10;99.90
5150;DHT22;2593;52.466;13.436;2023-12-20T01:36:18;7.10;99.90
5150;DHT22;2593;52.466;13.436;2023-12-20T01:38:45;7.10;99.90
5150;DHT22;2593;52.466;13.436;2023-12-20T01:41:10;7.00;99.90
5150;DHT22;2593;52.466;13.436;2023-12-20T01:43:36;7.00;99.90
5150;DHT22;2593;52.466;13.436;2023-12-20T01:46:01;7.10;99.90
5150;DHT22;2593;52.466;13.436;2023-12-20T01:48:28;7.20;99.90
5150;DHT22;2593;52.466;13.436;2023-12-20T01:50:54;7.20;99.90
5150;DHT22;2593;52.466;13.436;2023-12-20T01:53:21;7.20;99.90
5150;DHT22;2593;52.466;13.436;2023-12-20T01:55:47;7.10;99.90
5150;DHT22;2593;52.466;13.436;2023-12-20T01:58:13;7.00;99.90
5150;DHT22;2593;52.466;13.436;2023-12-20T02:00:39;7.00;99.90
5150;DHT22;2593;52.466;13.436;2023-12-20T02:03:05;7.00;99.90
5150;DHT22;2593;52.466;13.436;2023-12-20T02:05:31;7.10;99.90
5150;DHT22;2593;52.466;13.436;2023-12-20T02:07:56;7.10;99.90
5150;DHT22;2593;52.466;13.436;2023-12-20T02:10:22;7.10;99.90
5150;DHT22;2593;52.466;13.436;2023-12-20T02:12:48;7.20;99.90
5150;DHT22;2593;52.466;13.436;2023-12-20T02:15:13;7.10;99.90
5150;DHT22;2593;52.466;13.436;2023-12-20T02:17:39;7.10;99.90
5150;DHT22;2593;52.466;13.436;2023-12-20T02:20:05;7.30;99.90
5150;DHT22;2593;52.466;13.436;2023-12-20T02:22:31;7.30;99.90
5150;DHT22;2593;52.466;13.436;2023-12-20T02:24:56;7.40;99.90
5150;DHT22;2593;52.466;13.436;2023-12-20T02:27:22;7.40;99.90
5150;DHT22;2593;52.466;13.436;2023-12-20T02:29:48;7.40;99.90
5150;DHT22;2593;52.466;13.436;2023-12-20T02:32:15;7.40;99.90
5150;DHT22;2593;52.466;13.436;2023-12-20T02:34:41;7.40;99.90
5150;DHT22;2593;52.466;13.436;2023-12-20T02:37:06;7.40;99.90
5150;DHT22;2593;52.466;13.436;2023-12-20T02:39:32;7.30;99.90
5150;DHT22;2593;52.466;13.436;2023-12-20T02:41:58;7.30;99.90
5150;DHT22;2593;52.466;13.436;2023-12-20T02:44:24;7.30;99.90
5150;DHT22;2593;52.466;13.436;2023-12-20T02:46:50;7.30;99.90
5150;DHT22;2593;52.466;13.436;2023-12-20T02:49:15;7.30;99.90
5150;DHT22;2593;52.466;13.436;2023-12-20T02:51:40;7.30;99.90
5150;DHT22;2593;52.466;13.436;2023-12-20T02:54:06;7.30;99.90
5150;DHT22;2593;52.466;13.436;2023-12-20T02:56:32;7.30;99.90
5150;DHT22;2593;52.466;13.436;2023-12-20T02:58:57;7.20;99.90
5150;DHT22;2593;52.466;13.436;2023-12-20T03:01:23;7.20;99.90
5150;DHT22;2593;52.466;13.436;2023-12-20T03:03:48;7.20;99.90
5150;DHT22;2593;52.466;13.436;2023-12-20T03:06:17;7.30;99.90
5150;DHT22;2593;52.466;13.436;2023-12-20T03:08:44;7.20;99.90
5150;DHT22;2593;52.466;13.436;2023-12-20T03:11:09;7.20;99.90
5150;DHT22;2593;52.466;13.436;2023-12-20T03:13:35;7.20;99.90
5150;DHT22;2593;52.466;13.436;2023-12-20T03:16:00;7.20;99.90
5150;DHT22;2593;52.466;13.436;2023-12-20T03:18:26;7.20;99.90
5150;DHT22;2593;52.466;13.436;2023-12-20T03:20:53;7.20;99.90
5150;DHT22;2593;52.466;13.436;2023-12-20T03:23:18;7.20;99.90
5150;DHT22;2593;52.466;13.436;2023-12-20T03:25:44;7.20;99.90
5150;DHT22;2593;52.466;13.436;2023-12-20T03:28:09;7.10;99.90
5150;DHT22;2593;52.466;13.436;2023-12-20T03:30:35;7.20;99.90
5150;DHT22;2593;52.466;13.436;2023-12-20T03:33:00;7.20;99.90
5150;DHT22;2593;52.466;13.436;2023-12-20T03:35:26;6.70;99.90
5150;DHT22;2593;52.466;13.436;2023-12-20T03:37:51;7.10;99.90
5150;DHT22;2593;52.466;13.436;2023-12-20T03:40:17;7.20;99.90
5150;DHT22;2593;52.466;13.436;2023-12-20T03:42:42;7.10;99.90
5150;DHT22;2593;52.466;13.436;2023-12-20T03:45:08;7.10;99.90
5150;DHT22;2593;52.466;13.436;2023-12-20T03:47:34;7.20;99.90
5150;DHT22;2593;52.466;13.436;2023-12-20T03:49:59;7.10;99.90
5150;DHT22;2593;52.466;13.436;2023-12-20T03:52:25;7.20;99.90
5150;DHT22;2593;52.466;13.436;2023-12-20T03:54:50;7.10;99.90
5150;DHT22;2593;52.466;13.436;2023-12-20T03:57:16;7.20;99.90
5150;DHT22;2593;52.466;13.436;2023-12-20T03:59:41;7.20;99.90
5150;DHT22;2593;52.466;13.436;2023-12-20T04:02:06;7.20;99.90
5150;DHT22;2593;52.466;13.436;2023-12-20T04:04:32;7.20;99.90
5150;DHT22;2593;52.466;13.436;2023-12-20T04:06:58;7.20;99.90
5150;DHT22;2593;52.466;13.436;2023-12-20T04:09:23;7.10;99.90
5150;DHT22;2593;52.466;13.436;2023-12-20T04:11:49;7.10;99.90
5150;DHT22;2593;52.466;13.436;2023-12-20T04:14:14;7.20;99.90
5150;DHT22;2593;52.466;13.436;2023-12-20T04:16:40;7.20;99.90
5150;DHT22;2593;52.466;13.436;2023-12-20T04:19:05;7.20;99.90
5150;DHT22;2593;52.466;13.436;2023-12-20T04:21:31;7.20;99.90
5150;DHT22;2593;52.466;13.436;2023-12-20T04:23:56;7.20;99.90
5150;DHT22;2593;52.466;13.436;2023-12-20T04:26:22;7.10;99.90
5150;DHT22;2593;52.466;13.436;2023-12-20T04:28:47;7.10;99.90
5150;DHT22;2593;52.466;13.436;2023-12-20T04:31:13;7.10;99.90
5150;DHT22;2593;52.466;13.436;2023-12-20T04:33:38;7.00;99.90
5150;DHT22;2593;52.466;13.436;2023-12-20T04:36:04;7.00;99.90
5150;DHT22;2593;52.466;13.436;2023-12-20T04:38:30;7.00;99.90
5150;DHT22;2593;52.466;13.436;2023-12-20T04:40:55;6.90;99.90
5150;DHT22;2593;52.466;13.436;2023-12-20T04:43:21;6.90;99.90
5150;DHT22;2593;52.466;13.436;2023-12-20T04:45:46;6.80;99.90
5150;DHT22;2593;52.466;13.436;2023-12-20T04:48:12;6.80;99.90
5150;DHT22;2593;52.466;13.436;2023-12-20T04:50:37;6.80;99.90
5150;DHT22;2593;52.466;13.436;2023-12-20T04:53:03;6.70;99.90
5150;DHT22;2593;52.466;13.436;2023-12-20T04:55:28;6.60;99.90
5150;DHT22;2593;52.466;13.436;2023-12-20T04:57:54;6.70;99.90
5150;DHT22;2593;52.466;13.436;2023-12-20T05:00:20;6.60;99.90
5150;DHT22;2593;52.466;13.436;2023-12-20T05:02:45;6.00;99.90
5150;DHT22;2593;52.466;13.436;2023-12-20T05:05:11;6.50;99.90
5150;DHT22;2593;52.466;13.436;2023-12-20T05:07:36;6.40;99.90
5150;DHT22;2593;52.466;13.436;2023-12-20T05:10:02;6.50;99.90
5150;DHT22;2593;52.466;13.436;2023-12-20T05:12:29;6.50;99.90
5150;DHT22;2593;52.466;13.436;2023-12-20T05:14:55;6.50;99.90
5150;DHT22;2593;52.466;13.436;2023-12-20T05:17:20;6.50;99.90
5150;DHT22;2593;52.466;13.436;2023-12-20T05:19:46;6.40;99.90
5150;DHT22;2593;52.466;13.436;2023-12-20T05:22:12;6.40;99.90
5150;DHT22;2593;52.466;13.436;2023-12-20T05:24:37;6.40;99.90
5150;DHT22;2593;52.466;13.436;2023-12-20T05:27:03;7.10;99.90
5150;DHT22;2593;52.466;13.436;2023-12-20T05:29:28;6.50;99.90
5150;DHT22;2593;52.466;13.436;2023-12-20T05:31:54;6.40;99.90
5150;DHT22;2593;52.466;13.436;2023-12-20T05:34:19;6.40;99.90
5150;DHT22;2593;52.466;13.436;2023-12-20T05:36:45;6.30;99.90
5150;DHT22;2593;52.466;13.436;2023-12-20T05:39:11;6.30;99.90
5150;DHT22;2593;52.466;13.436;2023-12-20T05:41:37;6.20;99.90
5150;DHT22;2593;52.466;13.436;2023-12-20T05:44:02;6.20;99.90
5150;DHT22;2593;52.466;13.436;2023-12-20T05:46:28;6.20;99.90
5150;DHT22;2593;52.466;13.436;2023-12-20T05:48:53;6.10;99.90
5150;DHT22;2593;52.466;13.436;2023-12-20T05:51:19;6.00;99.90
5150;DHT22;2593;52.466;13.436;2023-12-20T05:53:44;6.00;99.90
5150;DHT22;2593;52.466;13.436;2023-12-20T05:56:10;5.90;99.90
5150;DHT22;2593;52.466;13.436;2023-12-20T05:58:35;5.90;99.90
5150;DHT22;2593;52.466;13.436;2023-12-20T06:01:03;5.80;99.90
5150;DHT22;2593;52.466;13.436;2023-12-20T06:03:29;5.70;99.90
5150;DHT22;2593;52.466;13.436;2023-12-20T06:05:54;5.80;99.90
5150;DHT22;2593;52.466;13.436;2023-12-20T06:08:20;5.70;99.90
5150;DHT22;2593;52.466;13.436;2023-12-20T06:10:45;5.60;99.90
5150;DHT22;2593;52.466;13.436;2023-12-20T06:13:11;5.90;99.90
5150;DHT22;2593;52.466;13.436;2023-12-20T06:15:38;5.60;99.90
5150;DHT22;2593;52.466;13.436;2023-12-20T06:18:05;5.50;99.90
5150;DHT22;2593;52.466;13.436;2023-12-20T06:20:31;5.60;99.90
5150;DHT22;2593;52.466;13.436;2023-12-20T06:22:56;5.50;99.90
5150;DHT22;2593;52.466;13.436;2023-12-20T06:25:22;5.50;99.90
5150;DHT22;2593;52.466;13.436;2023-12-20T06:27:47;5.60;99.90
5150;DHT22;2593;52.466;13.436;2023-12-20T06:30:13;5.40;99.90
5150;DHT22;2593;52.466;13.436;2023-12-20T06:32:38;5.40;99.90
5150;DHT22;2593;52.466;13.436;2023-12-20T06:35:04;5.40;99.90
5150;DHT22;2593;52.466;13.436;2023-12-20T06:37:30;5.40;99.90
5150;DHT22;2593;52.466;13.436;2023-12-20T06:39:56;5.30;99.90
5150;DHT22;2593;52.466;13.436;2023-12-20T06:42:22;5.40;99.90
5150;DHT22;2593;52.466;13.436;2023-12-20T06:44:48;5.40;99.90
5150;DHT22;2593;52.466;13.436;2023-12-20T06:47:13;5.40;99.90
5150;DHT22;2593;52.466;13.436;2023-12-20T06:49:39;5.50;99.90
5150;DHT22;2593;52.466;13.436;2023-12-20T06:52:05;5.40;99.90
5150;DHT22;2593;52.466;13.436;2023-12-20T06:54:31;5.50;99.90
5150;DHT22;2593;52.466;13.436;2023-12-20T06:56:56;5.40;99.90
5150;DHT22;2593;52.466;13.436;2023-12-20T06:59:22;5.40;99.90
5150;DHT22;2593;52.466;13.436;2023-12-20T07:01:48;5.50;99.90
5150;DHT22;2593;52.466;13.436;2023-12-20T07:04:13;5.50;99.90
5150;DHT22;2593;52.466;13.436;2023-12-20T07:06:39;5.60;99.90
5150;DHT22;2593;52.466;13.436;2023-12-20T07:09:04;5.60;99.90
5150;DHT22;2593;52.466;13.436;2023-12-20T07:11:30;5.60;99.90
5150;DHT22;2593;52.466;13.436;2023-12-20T07:13:55;5.50;99.90
5150;DHT22;2593;52.466;13.436;2023-12-20T07:16:21;5.60;99.90
5150;DHT22;2593;52.466;13.436;2023-12-20T07:18:47;5.50;99.90
5150;DHT22;2593;52.466;13.436;2023-12-20T07:21:13;5.60;99.90
5150;DHT22;2593;52.466;13.436;2023-12-20T07:23:39;5.60;99.90
5150;DHT22;2593;52.466;13.436;2023-12-20T07:26:04;5.60;99.90
5150;DHT22;2593;52.466;13.436;2023-12-20T07:28:29;5.60;99.90
5150;DHT22;2593;52.466;13.436;2023-12-20T07:30:55;5.70;99.90
5150;DHT22;2593;52.466;13.436;2023-12-20T07:33:20;5.60;99.90
5150;DHT22;2593;52.466;13.436;2023-12-20T07:35:47;5.60;99.90
5150;DHT22;2593;52.466;13.436;2023-12-20T07:38:12;5.60;99.90
5150;DHT22;2593;52.466;13.436;2023-12-20T07:40:38;5.70;99.90
5150;DHT22;2593;52.466;13.436;2023-12-20T07:43:04;5.70;99.90
5150;DHT22;2593;52.466;13.436;2023-12-20T07:45:29;5.70;99.90
5150;DHT22;2593;52.466;13.436;2023-12-20T07:47:55;5.80;99.90
5150;DHT22;2593;52.466;13.436;2023-12-20T07:50:20;5.80;99.90
5150;DHT22;2593;52.466;13.436;2023-12-20T07:52:46;5.90;99.90
5150;DHT22;2593;52.466;13.436;2023-12-20T07:55:11;5.90;99.90
5150;DHT22;2593;52.466;13.436;2023-12-20T07:57:37;5.80;99.90
5150;DHT22;2593;52.466;13.436;2023-12-20T08:00:03;5.80;99.90
5150;DHT22;2593;52.466;13.436;2023-12-20T08:02:29;5.80;99.90
5150;DHT22;2593;52.466;13.436;2023-12-20T08:04:55;5.80;99.90
5150;DHT22;2593;52.466;13.436;2023-12-20T08:07:20;5.80;99.90
5150;DHT22;2593;52.466;13.436;2023-12-20T08:09:46;5.90;99.90
5150;DHT22;2593;52.466;13.436;2023-12-20T08:12:11;6.00;99.90
5150;DHT22;2593;52.466;13.436;2023-12-20T08:14:37;5.90;99.90
5150;DHT22;2593;52.466;13.436;2023-12-20T08:17:02;5.90;99.90
5150;DHT22;2593;52.466;13.436;2023-12-20T08:19:28;6.00;99.90
5150;DHT22;2593;52.466;13.436;2023-12-20T08:21:53;6.00;99.90
5150;DHT22;2593;52.466;13.436;2023-12-20T08:24:19;6.00;99.90
5150;DHT22;2593;52.466;13.436;2023-12-20T08:26:44;6.00;99.90
5150;DHT22;2593;52.466;13.436;2023-12-20T08:29:12;5.90;99.90
5150;DHT22;2593;52.466;13.436;2023-12-20T08:31:38;6.00;99.90
5150;DHT22;2593;52.466;13.436;2023-12-20T08:34:03;6.10;99.90
5150;DHT22;2593;52.466;13.436;2023-12-20T08:36:29;6.10;99.90
5150;DHT22;2593;52.466;13.436;2023-12-20T08:38:54;6.10;99.90
5150;DHT22;2593;52.466;13.436;2023-12-20T08:41:20;6.10;99.90
5150;DHT22;2593;52.466;13.436;2023-12-20T08:43:46;6.10;99.90
5150;DHT22;2593;52.466;13.436;2023-12-20T08:46:11;6.20;99.90
5150;DHT22;2593;52.466;13.436;2023-12-20T08:48:37;6.30;99.90
5150;DHT22;2593;52.466;13.436;2023-12-20T08:51:03;6.30;99.90
5150;DHT22;2593;52.466;13.436;2023-12-20T08:53:29;6.20;99.90
5150;DHT22;2593;52.466;13.436;2023-12-20T08:55:54;6.40;99.90
5150;DHT22;2593;52.466;13.436;2023-12-20T08:58:20;6.40;99.90
5150;DHT22;2593;52.466;13.436;2023-12-20T09:00:45;6.50;99.90
5150;DHT22;2593;52.466;13.436;2023-12-20T09:03:11;6.70;99.90
5150;DHT22;2593;52.466;13.436;2023-12-20T09:05:36;6.60;99.90
5150;DHT22;2593;52.466;13.436;2023-12-20T09:08:02;6.50;99.90
5150;DHT22;2593;52.466;13.436;2023-12-20T09:10:27;6.60;99.90
5150;DHT22;2593;52.466;13.436;2023-12-20T09:12:53;6.60;99.90
5150;DHT22;2593;52.466;13.436;2023-12-20T09:15:26;6.60;99.90
5150;DHT22;2593;52.466;13.436;2023-12-20T09:17:51;6.60;99.90
5150;DHT22;2593;52.466;13.436;2023-12-20T09:20:17;6.70;99.90
5150;DHT22;2593;52.466;13.436;2023-12-20T09:22:43;6.80;99.90
5150;DHT22;2593;52.466;13.436;2023-12-20T09:25:12;6.90;99.90
5150;DHT22;2593;52.466;13.436;2023-12-20T09:27:40;6.80;99.90
5150;DHT22;2593;52.466;13.436;2023-12-20T09:30:05;6.60;99.90
5150;DHT22;2593;52.466;13.436;2023-12-20T09:32:31;6.70;99.90
5150;DHT22;2593;52.466;13.436;2023-12-20T09:34:56;6.60;99.90
5150;DHT22;2593;52.466;13.436;2023-12-20T09:37:25;6.60;99.90
5150;DHT22;2593;52.466;13.436;2023-12-20T09:39:51;6.50;99.90
5150;DHT22;2593;52.466;13.436;2023-12-20T09:42:17;6.50;99.90
5150;DHT22;2593;52.466;13.436;2023-12-20T09:44:46;6.50;99.90
5150;DHT22;2593;52.466;13.436;2023-12-20T09:47:12;6.50;99.90
5150;DHT22;2593;52.466;13.436;2023-12-20T09:49:39;6.60;99.90
5150;DHT22;2593;52.466;13.436;2023-12-20T09:52:05;6.60;99.90
5150;DHT22;2593;52.466;13.436;2023-12-20T09:54:33;6.60;99.90
5150;DHT22;2593;52.466;13.436;2023-12-20T09:56:58;6.60;99.90
5150;DHT22;2593;52.466;13.436;2023-12-20T09:59:24;6.60;99.90
5150;DHT22;2593;52.466;13.436;2023-12-20T10:01:49;6.70;99.90
5150;DHT22;2593;52.466;13.436;2023-12-20T10:04:15;6.70;99.90
5150;DHT22;2593;52.466;13.436;2023-12-20T10:06:42;6.60;99.90
5150;DHT22;2593;52.466;13.436;2023-12-20T10:09:08;6.60;99.90
5150;DHT22;2593;52.466;13.436;2023-12-20T10:11:40;6.70;99.90
5150;DHT22;2593;52.466;13.436;2023-12-20T10:14:05;6.70;99.90
5150;DHT22;2593;52.466;13.436;2023-12-20T10:16:31;6.60;99.90
5150;DHT22;2593;52.466;13.436;2023-12-20T10:18:57;6.60;99.90
5150;DHT22;2593;52.466;13.436;2023-12-20T10:21:23;6.60;99.90
5150;DHT22;2593;52.466;13.436;2023-12-20T10:23:51;6.60;99.90
5150;DHT22;2593;52.466;13.436;2023-12-20T10:26:24;6.60;37.50
5150;DHT22;2593;52.466;13.436;2023-12-20T10:28:50;6.60;99.90
5150;DHT22;2593;52.466;13.436;2023-12-20T10:31:29;6.60;99.90
5150;DHT22;2593;52.466;13.436;2023-12-20T10:33:58;6.90;43.30
5150;DHT22;2593;52.466;13.436;2023-12-20T10:36:31;6.90;1.00
5150;DHT22;2593;52.466;13.436;2023-12-20T10:38:57;6.90;1.00
5150;DHT22;2593;52.466;13.436;2023-12-20T10:41:29;6.80;1.00
5150;DHT22;2593;52.466;13.436;2023-12-20T10:43:56;6.90;1.00
5150;DHT22;2593;52.466;13.436;2023-12-20T10:46:23;6.80;99.90
5150;DHT22;2593;52.466;13.436;2023-12-20T10:48:53;6.80;1.00
5150;DHT22;2593;52.466;13.436;2023-12-20T10:51:19;6.90;99.90
5150;DHT22;2593;52.466;13.436;2023-12-20T10:53:45;7.00;99.90
5150;DHT22;2593;52.466;13.436;2023-12-20T10:56:12;7.20;99.90
5150;DHT22;2593;52.466;13.436;2023-12-20T10:58:41;7.30;99.90
5150;DHT22;2593;52.466;13.436;2023-12-20T11:01:08;7.20;99.90
5150;DHT22;2593;52.466;13.436;2023-12-20T11:03:34;7.20;99.90
5150;DHT22;2593;52.466;13.436;2023-12-20T11:08:47;7.20;99.90
5150;DHT22;2593;52.466;13.436;2023-12-20T11:11:20;7.20;99.90
5150;DHT22;2593;52.466;13.436;2023-12-20T11:14:20;7.20;99.90
5150;DHT22;2593;52.466;13.436;2023-12-20T11:16:38;7.10;99.90
5150;DHT22;2593;52.466;13.436;2023-12-20T11:19:06;7.10;99.90
5150;DHT22;2593;52.466;13.436;2023-12-20T11:21:32;7.00;99.90
5150;DHT22;2593;52.466;13.436;2023-12-20T11:23:57;7.00;99.90
5150;DHT22;2593;52.466;13.436;2023-12-20T11:26:27;7.00;1.00
5150;DHT22;2593;52.466;13.436;2023-12-20T11:28:54;7.00;1.00
5150;DHT22;2593;52.466;13.436;2023-12-20T11:31:19;7.00;1.00
5150;DHT22;2593;52.466;13.436;2023-12-20T11:33:45;6.90;1.00
5150;DHT22;2593;52.466;13.436;2023-12-20T11:36:14;7.10;1.00
5150;DHT22;2593;52.466;13.436;2023-12-20T11:39:01;7.10;1.00
5150;DHT22;2593;52.466;13.436;2023-12-20T11:41:28;7.00;1.00
5150;DHT22;2593;52.466;13.436;2023-12-20T11:43:55;7.00;1.00
5150;DHT22;2593;52.466;13.436;2023-12-20T11:46:20;7.00;1.00
5150;DHT22;2593;52.466;13.436;2023-12-20T11:48:46;7.00;1.00
5150;DHT22;2593;52.466;13.436;2023-12-20T11:51:13;7.50;1.00
5150;DHT22;2593;52.466;13.436;2023-12-20T11:53:38;7.10;1.00
5150;DHT22;2593;52.466;13.436;2023-12-20T11:56:07;7.00;1.00
5150;DHT22;2593;52.466;13.436;2023-12-20T11:58:33;7.00;1.00
5150;DHT22;2593;52.466;13.436;2023-12-20T12:00:59;6.90;1.00
5150;DHT22;2593;52.466;13.436;2023-12-20T12:03:24;7.00;1.00
5150;DHT22;2593;52.466;13.436;2023-12-20T12:05:50;6.80;1.00
5150;DHT22;2593;52.466;13.436;2023-12-20T12:08:16;7.30;18.50
5150;DHT22;2593;52.466;13.436;2023-12-20T12:10:42;6.90;28.00
5150;DHT22;2593;52.466;13.436;2023-12-20T12:13:08;6.90;1.00
5150;DHT22;2593;52.466;13.436;2023-12-20T12:15:33;6.90;8.70
5150;DHT22;2593;52.466;13.436;2023-12-20T12:17:59;7.10;1.00
5150;DHT22;2593;52.466;13.436;2023-12-20T12:20:24;7.00;1.00
5150;DHT22;2593;52.466;13.436;2023-12-20T12:22:59;7.00;1.00
5150;DHT22;2593;52.466;13.436;2023-12-20T12:25:25;7.10;1.00
5150;DHT22;2593;52.466;13.436;2023-12-20T12:27:51;7.00;99.90
5150;DHT22;2593;52.466;13.436;2023-12-20T12:30:17;7.10;1.00
5150;DHT22;2593;52.466;13.436;2023-12-20T12:32:44;7.10;99.90
5150;DHT22;2593;52.466;13.436;2023-12-20T12:35:09;7.00;99.90
5150;DHT22;2593;52.466;13.436;2023-12-20T12:37:36;7.00;1.00
5150;DHT22;2593;52.466;13.436;2023-12-20T12:40:04;7.00;1.00
5150;DHT22;2593;52.466;13.436;2023-12-20T12:42:30;7.00;99.90
5150;DHT22;2593;52.466;13.436;2023-12-20T12:44:56;6.90;99.90
5150;DHT22;2593;52.466;13.436;2023-12-20T12:47:21;6.90;1.00
5150;DHT22;2593;52.466;13.436;2023-12-20T12:49:47;6.80;1.00
5150;DHT22;2593;52.466;13.436;2023-12-20T12:52:13;6.80;1.00
5150;DHT22;2593;52.466;13.436;2023-12-20T12:54:38;6.80;1.00
5150;DHT22;2593;52.466;13.436;2023-12-20T12:57:04;6.80;99.90
5150;DHT22;2593;52.466;13.436;2023-12-20T12:59:29;6.70;99.90
5150;DHT22;2593;52.466;13.436;2023-12-20T13:01:55;6.70;1.00
5150;DHT22;2593;52.466;13.436;2023-12-20T13:04:20;6.80;99.90
5150;DHT22;2593;52.466;13.436;2023-12-20T13:06:46;6.60;99.90
5150;DHT22;2593;52.466;13.436;2023-12-20T13:09:12;6.50;1.00
5150;DHT22;2593;52.466;13.436;2023-12-20T13:11:37;6.50;22.70
5150;DHT22;2593;52.466;13.436;2023-12-20T13:14:03;6.40;1.00
5150;DHT22;2593;52.466;13.436;2023-12-20T13:16:29;6.40;39.80
5150;DHT22;2593;52.466;13.436;2023-12-20T13:18:54;6.40;68.60
5150;DHT22;2593;52.466;13.436;2023-12-20T13:21:21;6.40;99.90
5150;DHT22;2593;52.466;13.436;2023-12-20T13:23:46;6.40;99.90
5150;DHT22;2593;52.466;13.436;2023-12-20T13:26:12;6.50;99.90
5150;DHT22;2593;52.466;13.436;2023-12-20T13:28:37;6.70;99.90
5150;DHT22;2593;52.466;13.436;2023-12-20T13:31:03;6.80;99.90
5150;DHT22;2593;52.466;13.436;2023-12-20T13:33:28;6.70;99.90
5150;DHT22;2593;52.466;13.436;2023-12-20T13:35:54;6.60;1.00
5150;DHT22;2593;52.466;13.436;2023-12-20T13:38:21;6.40;1.00
5150;DHT22;2593;52.466;13.436;2023-12-20T13:40:46;6.20;99.90
5150;DHT22;2593;52.466;13.436;2023-12-20T13:43:13;6.10;1.00
5150;DHT22;2593;52.466;13.436;2023-12-20T13:45:39;6.10;1.00
5150;DHT22;2593;52.466;13.436;2023-12-20T13:48:04;6.00;99.90
5150;DHT22;2593;52.466;13.436;2023-12-20T13:50:30;5.90;1.00
5150;DHT22;2593;52.466;13.436;2023-12-20T13:52:55;5.90;99.90
5150;DHT22;2593;52.466;13.436;2023-12-20T13:55:21;5.80;99.90
5150;DHT22;2593;52.466;13.436;2023-12-20T13:57:50;5.80;69.20
5150;DHT22;2593;52.466;13.436;2023-12-20T14:00:16;5.80;99.90
5150;DHT22;2593;52.466;13.436;2023-12-20T14:02:41;5.80;2.30
5150;DHT22;2593;52.466;13.436;2023-12-20T14:05:08;6.00;1.00
5150;DHT22;2593;52.466;13.436;2023-12-20T14:07:34;5.90;1.00
5150;DHT22;2593;52.466;13.436;2023-12-20T14:09:59;5.80;1.00
5150;DHT22;2593;52.466;13.436;2023-12-20T14:12:25;5.80;1.00
5150;DHT22;2593;52.466;13.436;2023-12-20T14:14:50;5.80;99.90
5150;DHT22;2593;52.466;13.436;2023-12-20T14:17:17;5.70;1.00
5150;DHT22;2593;52.466;13.436;2023-12-20T14:19:42;5.70;1.00
5150;DHT22;2593;52.466;13.436;2023-12-20T14:22:08;5.80;99.90
5150;DHT22;2593;52.466;13.436;2023-12-20T14:24:34;5.70;32.70
5150;DHT22;2593;52.466;13.436;2023-12-20T14:27:00;5.80;99.90
5150;DHT22;2593;52.466;13.436;2023-12-20T14:29:25;5.70;99.90
5150;DHT22;2593;52.466;13.436;2023-12-20T14:31:52;5.50;99.90
5150;DHT22;2593;52.466;13.436;2023-12-20T14:34:18;5.50;1.00
5150;DHT22;2593;52.466;13.436;2023-12-20T14:36:43;5.50;99.90
5150;DHT22;2593;52.466;13.436;2023-12-20T14:39:09;5.60;99.90
5150;DHT22;2593;52.466;13.436;2023-12-20T14:41:38;5.70;1.00
5150;DHT22;2593;52.466;13.436;2023-12-20T14:44:05;5.70;99.90
5150;DHT22;2593;52.466;13.436;2023-12-20T14:46:30;5.70;1.00
5150;DHT22;2593;52.466;13.436;2023-12-20T14:48:56;5.80;1.00
5150;DHT22;2593;52.466;13.436;2023-12-20T14:51:21;5.80;1.00
5150;DHT22;2593;52.466;13.436;2023-12-20T14:53:48;5.80;1.00
5150;DHT22;2593;52.466;13.436;2023-12-20T14:56:13;5.70;1.00
5150;DHT22;2593;52.466;13.436;2023-12-20T14:58:40;5.80;1.00
5150;DHT22;2593;52.466;13.436;2023-12-20T15:01:05;5.70;1.00
5150;DHT22;2593;52.466;13.436;2023-12-20T15:03:34;5.60;99.90
5150;DHT22;2593;52.466;13.436;2023-12-20T15:05:59;5.70;99.90
5150;DHT22;2593;52.466;13.436;2023-12-20T15:08:25;5.70;99.90
5150;DHT22;2593;52.466;13.436;2023-12-20T15:10:51;5.80;99.90
5150;DHT22;2593;52.466;13.436;2023-12-20T15:13:16;5.70;99.90
5150;DHT22;2593;52.466;13.436;2023-12-20T15:15:42;5.70;99.90
5150;DHT22;2593;52.466;13.436;2023-12-20T15:18:07;5.70;99.90
5150;DHT22;2593;52.466;13.436;2023-12-20T15:20:33;5.70;99.90
5150;DHT22;2593;52.466;13.436;2023-12-20T15:22:59;5.70;99.90
5150;DHT22;2593;52.466;13.436;2023-12-20T15:25:30;5.70;1.00
5150;DHT22;2593;52.466;13.436;2023-12-20T15:27:55;5.70;99.90
5150;DHT22;2593;52.466;13.436;2023-12-20T15:30:21;5.60;1.00
5150;DHT22;2593;52.466;13.436;2023-12-20T15:32:47;5.50;1.00
5150;DHT22;2593;52.466;13.436;2023-12-20T15:35:12;5.70;99.90
5150;DHT22;2593;52.466;13.436;2023-12-20T15:37:38;5.70;1.00
5150;DHT22;2593;52.466;13.436;2023-12-20T15:40:04;5.60;1.00
5150;DHT22;2593;52.466;13.436;2023-12-20T15:42:30;5.60;99.90
5150;DHT22;2593;52.466;13.436;2023-12-20T15:44:57;5.70;99.90
5150;DHT22;2593;52.466;13.436;2023-12-20T15:47:22;5.50;99.90
5150;DHT22;2593;52.466;13.436;2023-12-20T15:49:48;5.50;99.90
5150;DHT22;2593;52.466;13.436;2023-12-20T15:52:14;5.50;1.00
5150;DHT22;2593;52.466;13.436;2023-12-20T15:54:40;5.40;99.90
5150;DHT22;2593;52.466;13.436;2023-12-20T15:57:06;5.50;99.90
5150;DHT22;2593;52.466;13.436;2023-12-20T15:59:32;5.50;99.90